Mc Kenzie Bridge, Oregon
Current Conditions -  °F | °C
As of 1:15 PM on Monday 24 Nov 2014 (Local Time) from KBDN Reporting Station
Clear Clear  
Wind Chill: 40°   Ceiling: Unl
Heat Index: 46°   Visibility: 10mi
Dew Point: 27°   Wind: 15mph
Humidity: 46%   Direction: 210°SSW
Pressure: 30.31"   Gusts: 23mph
Location:  44.2049°N, 122.069°W
Report Text: KBDN 242115Z AUTO 21013G20KT 10SM CLR 08/M03 A3031 RMK AO2
Loading
Personal Weather Stations






























Interactive Weather Map New forecast layout! Learn more

10-Day Weather Forecast

Advertisements
Track Severe Weather on mobile